createdAt,value
2017-02-14T00:00:20.442Z,93.66
2017-02-14T00:01:29.890Z,93.84
2017-02-14T00:02:38.950Z,94.41
2017-02-14T00:03:48.041Z,93.56
2017-02-14T00:04:57.495Z,93.28
2017-02-14T00:06:06.570Z,93.75
2017-02-14T00:07:15.655Z,94.03
2017-02-14T00:08:24.329Z,93.37
2017-02-14T00:09:34.162Z,93.47
2017-02-14T00:10:43.218Z,94.03
2017-02-14T00:11:52.304Z,93.56
2017-02-14T00:13:01.752Z,93.28
2017-02-14T00:14:11.204Z,93.09
2017-02-14T00:15:21.034Z,93.09
2017-02-14T00:16:30.113Z,93.09
2017-02-14T00:17:39.564Z,92.43
2017-02-14T00:18:49.014Z,92.8
2017-02-14T00:19:58.086Z,93.28
2017-02-14T00:21:07.140Z,93.28
2017-02-14T00:22:15.849Z,93.09
2017-02-14T00:23:25.709Z,93.47
2017-02-14T00:24:35.164Z,93.56
2017-02-14T00:25:45.380Z,92.9
2017-02-14T00:26:54.841Z,92.43
2017-02-14T00:28:04.323Z,92.05
2017-02-14T00:29:13.411Z,91.86
2017-02-14T00:30:23.260Z,92.43
2017-02-14T00:31:32.732Z,93.09
2017-02-14T00:32:41.436Z,93.28
2017-02-14T00:33:50.905Z,93.75
2017-02-14T00:34:59.994Z,94.32
2017-02-14T00:36:09.828Z,93.94
2017-02-14T00:37:19.684Z,93.28
2017-02-14T00:38:28.385Z,93.28
2017-02-14T00:39:37.452Z,93.28
2017-02-14T00:40:47.263Z,93.47
2017-02-14T00:41:56.345Z,92.71
2017-02-14T00:43:06.195Z,93.09
2017-02-14T00:44:15.262Z,92.99
2017-02-14T00:45:24.793Z,92.99
2017-02-14T00:46:34.627Z,92.61
2017-02-14T00:47:44.098Z,92.14
2017-02-14T00:48:53.558Z,92.61
2017-02-14T00:50:03.794Z,92.43
2017-02-14T00:51:13.651Z,92.61
2017-02-14T00:52:22.710Z,92.71
2017-02-14T00:53:32.160Z,93.09
2017-02-14T00:54:41.618Z,93.75
2017-02-14T00:55:50.698Z,93.56
2017-02-14T00:57:00.168Z,93.75
2017-02-14T00:58:09.615Z,93.56
2017-02-14T00:59:18.683Z,93.47
2017-02-14T01:00:27.769Z,94.22
2017-02-14T01:01:37.240Z,94.32
2017-02-14T01:02:46.384Z,93.47
2017-02-14T01:03:55.854Z,93.28
2017-02-14T01:05:06.111Z,93.37
2017-02-14T01:06:15.550Z,93.47
2017-02-14T01:07:25.767Z,92.99
2017-02-14T01:08:34.462Z,93.09
2017-02-14T01:09:43.911Z,92.33
2017-02-14T01:10:52.974Z,92.71
2017-02-14T01:12:02.419Z,93.18
2017-02-14T01:13:12.239Z,93.09
2017-02-14T01:14:21.373Z,93.18
2017-02-14T01:15:30.473Z,92.43
2017-02-14T01:16:39.922Z,93.09
2017-02-14T01:17:48.997Z,93.28
2017-02-14T01:18:58.068Z,93.47
2017-02-14T01:20:07.514Z,93.56
2017-02-14T01:21:16.193Z,93.09
2017-02-14T01:22:25.259Z,93.47
2017-02-14T01:23:34.356Z,93.56
2017-02-14T01:24:43.428Z,93.84
2017-02-14T01:25:52.110Z,93.56
2017-02-14T01:27:01.187Z,94.32
2017-02-14T01:28:10.239Z,94.98
2017-02-14T01:29:18.922Z,95.26
2017-02-14T01:30:29.148Z,95.26
2017-02-14T01:31:38.201Z,95.17
2017-02-14T01:32:47.692Z,95.36
2017-02-14T01:33:57.136Z,95.36
2017-02-14T01:35:06.582Z,95.17
2017-02-14T01:36:15.647Z,95.83
2017-02-14T01:37:25.492Z,95.36
2017-02-14T01:38:34.935Z,95.26
2017-02-14T01:39:44.409Z,95.54
2017-02-14T01:40:54.241Z,95.83
2017-02-14T01:42:03.700Z,96.02
2017-02-14T01:43:12.755Z,96.21
2017-02-14T01:44:21.815Z,96.4
2017-02-14T01:45:31.648Z,96.21
2017-02-14T01:46:40.320Z,95.64
2017-02-14T01:47:50.158Z,95.36
2017-02-14T01:48:59.212Z,94.79
2017-02-14T01:50:08.679Z,95.07
2017-02-14T01:51:17.750Z,95.26
2017-02-14T01:52:27.191Z,95.92
2017-02-14T01:53:36.270Z,95.36
2017-02-14T01:54:44.974Z,96.49
2017-02-14T01:55:54.426Z,96.59
2017-02-14T01:57:03.918Z,96.16
2017-02-14T01:58:12.970Z,96.73
2017-02-14T01:59:22.077Z,96.63
2017-02-14T02:00:31.919Z,96.4
2017-02-14T02:01:40.993Z,96.4
2017-02-14T02:02:50.058Z,96.59
2017-02-14T02:03:59.512Z,96.3
2017-02-14T02:05:08.956Z,96.21
2017-02-14T02:06:18.000Z,97.06
2017-02-14T02:07:28.223Z,96.54
2017-02-14T02:08:37.681Z,96.82
2017-02-14T02:09:47.528Z,96.68
2017-02-14T02:10:56.988Z,96.4
2017-02-14T02:12:06.438Z,96.59
2017-02-14T02:13:15.873Z,96.68
2017-02-14T02:14:24.965Z,96.78
2017-02-14T02:15:34.046Z,96.49
2017-02-14T02:16:43.140Z,96.4
2017-02-14T02:17:52.191Z,96.59
2017-02-14T02:19:01.666Z,96.3
2017-02-14T02:20:10.746Z,96.59
2017-02-14T02:21:20.578Z,96.78
2017-02-14T02:22:29.663Z,96.4
2017-02-14T02:23:38.737Z,95.83
2017-02-14T02:24:48.181Z,96.4
2017-02-14T02:25:57.627Z,95.64
2017-02-14T02:27:06.685Z,96.02
2017-02-14T02:28:15.760Z,95.54
2017-02-14T02:29:25.202Z,95.73
2017-02-14T02:30:34.675Z,95.92
2017-02-14T02:31:43.366Z,95.83
2017-02-14T02:32:52.811Z,96.4
2017-02-14T02:34:01.879Z,95.83
2017-02-14T02:35:10.953Z,95.64
2017-02-14T02:36:21.178Z,96.35
2017-02-14T02:37:30.239Z,96.35
2017-02-14T02:38:39.313Z,97.01
2017-02-14T02:39:48.382Z,96.82
2017-02-14T02:40:58.214Z,97.2
2017-02-14T02:42:06.895Z,96.73
2017-02-14T02:43:15.952Z,97.01
2017-02-14T02:44:25.384Z,96.44
2017-02-14T02:45:34.828Z,96.91
2017-02-14T02:46:43.541Z,96.91
2017-02-14T02:47:52.995Z,96.91
2017-02-14T02:49:02.448Z,96.82
2017-02-14T02:50:12.314Z,98.05
2017-02-14T02:51:21.379Z,97.48
2017-02-14T02:52:30.438Z,97.29
2017-02-14T02:53:39.534Z,98.05
2017-02-14T02:54:49.020Z,97.58
2017-02-14T02:55:58.454Z,97.77
2017-02-14T02:57:07.921Z,98.33
2017-02-14T02:58:17.773Z,98.99
2017-02-14T02:59:27.596Z,99.27
2017-02-14T03:00:37.057Z,99.56
2017-02-14T03:01:46.891Z,99.75
2017-02-14T03:02:55.958Z,99.56
2017-02-14T03:04:05.052Z,99.65
2017-02-14T03:05:14.494Z,99.46
2017-02-14T03:06:24.334Z,99.94
2017-02-14T03:07:34.677Z,99.99
2017-02-14T03:08:43.747Z,99.99
2017-02-14T03:09:52.444Z,99.99
2017-02-14T03:11:01.882Z,99.99
2017-02-14T03:12:11.724Z,99.99
2017-02-14T03:13:20.421Z,99.99
2017-02-14T03:14:29.887Z,99.99
2017-02-14T03:15:39.705Z,99.99
2017-02-14T03:16:49.139Z,99.99
2017-02-14T03:17:58.202Z,99.99
2017-02-14T03:19:07.671Z,99.99
2017-02-14T03:20:17.112Z,99.99
2017-02-14T03:21:26.575Z,99.99
2017-02-14T03:22:36.047Z,99.99
2017-02-14T03:23:44.732Z,99.99
2017-02-14T03:24:53.788Z,99.99
2017-02-14T03:26:03.237Z,99.99
2017-02-14T03:27:12.291Z,99.99
2017-02-14T03:28:21.726Z,99.99
2017-02-14T03:29:31.541Z,99.99
2017-02-14T03:30:41.004Z,99.99
2017-02-14T03:31:50.059Z,99.99
2017-02-14T03:32:59.133Z,99.99
2017-02-14T03:34:08.211Z,99.99
2017-02-14T03:35:17.284Z,99.99
2017-02-14T03:36:27.125Z,99.99
2017-02-14T03:37:36.196Z,99.99
2017-02-14T03:38:45.652Z,99.99
2017-02-14T03:39:55.093Z,99.99
2017-02-14T03:41:04.547Z,99.99
2017-02-14T03:42:14.363Z,99.99
2017-02-14T03:43:23.801Z,99.99
2017-02-14T03:44:32.467Z,99.99
2017-02-14T03:45:41.905Z,99.99
2017-02-14T03:46:51.349Z,99.99
2017-02-14T03:48:00.816Z,99.99
2017-02-14T03:49:09.867Z,99.99
2017-02-14T03:50:18.940Z,99.99
2017-02-14T03:51:28.020Z,99.99
2017-02-14T03:52:36.716Z,99.99
2017-02-14T03:53:45.787Z,99.99
2017-02-14T03:54:56.017Z,99.99
2017-02-14T03:56:05.481Z,99.99
2017-02-14T03:57:14.924Z,99.99
2017-02-14T03:58:24.359Z,99.99
2017-02-14T03:59:33.446Z,99.99
2017-02-14T04:00:42.896Z,99.99
2017-02-14T04:01:52.340Z,99.99
2017-02-14T04:03:01.816Z,99.99
2017-02-14T04:04:11.671Z,99.99
2017-02-14T04:05:21.873Z,99.99
2017-02-14T04:06:30.927Z,99.99
2017-02-14T04:07:40.377Z,99.99
2017-02-14T04:08:49.449Z,99.99
2017-02-14T04:09:58.525Z,99.99
2017-02-14T04:11:08.368Z,99.99
2017-02-14T04:12:17.461Z,99.99
2017-02-14T04:13:26.929Z,99.99
2017-02-14T04:14:37.142Z,99.99
2017-02-14T04:15:47.346Z,99.99
2017-02-14T04:16:57.180Z,99.99
2017-02-14T04:18:06.624Z,99.99
2017-02-14T04:19:15.308Z,99.99
2017-02-14T04:20:24.366Z,99.99
2017-02-14T04:21:33.841Z,99.99
2017-02-14T04:22:42.897Z,99.99
2017-02-14T04:23:53.094Z,99.99
2017-02-14T04:25:02.165Z,99.99
2017-02-14T04:26:12.002Z,99.99
2017-02-14T04:27:21.063Z,99.99
2017-02-14T04:28:30.514Z,99.99
2017-02-14T04:29:39.981Z,99.99
2017-02-14T04:30:49.052Z,99.99
2017-02-14T04:31:58.500Z,99.99
2017-02-14T04:33:07.939Z,99.99
2017-02-14T04:34:17.396Z,99.99
2017-02-14T04:35:26.488Z,99.99
2017-02-14T04:36:35.943Z,99.99
2017-02-14T04:37:45.378Z,99.99
2017-02-14T04:38:54.056Z,99.99
2017-02-14T04:40:03.132Z,99.99
2017-02-14T04:41:12.228Z,99.99
2017-02-14T04:42:21.696Z,99.99
2017-02-14T04:43:31.523Z,99.99
2017-02-14T04:44:40.994Z,99.99
2017-02-14T04:45:50.463Z,99.99
2017-02-14T04:46:59.534Z,99.99
2017-02-14T04:48:09.406Z,99.99
2017-02-14T04:49:18.082Z,99.99
2017-02-14T04:50:26.791Z,99.99
2017-02-14T04:51:36.636Z,99.99
2017-02-14T04:52:46.097Z,99.99
2017-02-14T04:53:54.807Z,99.99
2017-02-14T04:55:04.266Z,99.99
2017-02-14T04:56:13.326Z,99.99
2017-02-14T04:57:22.013Z,99.99
2017-02-14T04:58:30.701Z,99.99
2017-02-14T04:59:40.521Z,99.99
2017-02-14T05:00:50.345Z,99.99
2017-02-14T05:02:00.174Z,99.99
2017-02-14T05:03:09.238Z,99.99
2017-02-14T05:04:19.073Z,99.99
2017-02-14T05:05:28.921Z,99.99
2017-02-14T05:06:38.741Z,99.99
2017-02-14T05:07:48.207Z,99.99
2017-02-14T05:08:57.651Z,99.99
2017-02-14T05:10:07.095Z,99.99
2017-02-14T05:11:16.560Z,99.99
2017-02-14T05:12:26.009Z,99.99
2017-02-14T05:13:35.460Z,99.99
2017-02-14T05:14:44.923Z,99.99
2017-02-14T05:15:54.394Z,99.99
2017-02-14T05:17:03.857Z,99.99
2017-02-14T05:18:12.928Z,99.99
2017-02-14T05:19:22.388Z,99.99
2017-02-14T05:20:31.886Z,99.99
2017-02-14T05:21:41.714Z,99.99
2017-02-14T05:22:50.432Z,99.99
2017-02-14T05:23:59.492Z,99.99
2017-02-14T05:25:08.929Z,99.99
2017-02-14T05:26:17.622Z,99.99
2017-02-14T05:27:26.709Z,99.99
2017-02-14T05:28:35.775Z,99.99
2017-02-14T05:29:45.237Z,99.99
2017-02-14T05:30:53.901Z,99.99
2017-02-14T05:32:03.376Z,99.99
2017-02-14T05:33:13.203Z,99.99
2017-02-14T05:34:22.269Z,99.99
2017-02-14T05:35:31.717Z,99.99
2017-02-14T05:36:40.399Z,99.99
2017-02-14T05:37:49.081Z,99.99
2017-02-14T05:38:58.150Z,99.99
2017-02-14T05:40:07.602Z,99.99
2017-02-14T05:41:16.685Z,99.99
2017-02-14T05:42:26.142Z,99.99
2017-02-14T05:43:34.845Z,99.99
2017-02-14T05:44:43.531Z,99.99
2017-02-14T05:45:52.236Z,99.99
2017-02-14T05:47:02.084Z,99.99
2017-02-14T05:48:11.158Z,99.99
2017-02-14T05:49:20.973Z,99.99
2017-02-14T05:50:30.044Z,99.99
2017-02-14T05:51:39.486Z,99.99
2017-02-14T05:52:49.322Z,99.99
2017-02-14T05:53:59.159Z,99.99
2017-02-14T05:55:08.607Z,99.99
2017-02-14T05:56:17.681Z,99.99
2017-02-14T05:57:27.508Z,99.99
2017-02-14T05:58:37.345Z,99.99
2017-02-14T05:59:46.429Z,99.99
2017-02-14T06:00:56.249Z,99.99
2017-02-14T06:02:05.323Z,99.99
2017-02-14T06:03:14.778Z,99.99
2017-02-14T06:04:24.233Z,99.99
2017-02-14T06:05:33.311Z,99.99
2017-02-14T06:06:42.374Z,99.99
2017-02-14T06:07:52.608Z,99.99
2017-02-14T06:09:01.290Z,99.99
2017-02-14T06:10:09.983Z,99.99
2017-02-14T06:11:19.453Z,99.99
2017-02-14T06:12:29.284Z,99.99
2017-02-14T06:13:37.965Z,99.99
2017-02-14T06:14:48.190Z,99.99
2017-02-14T06:15:58.017Z,99.99
2017-02-14T06:17:07.080Z,99.99
2017-02-14T06:18:16.143Z,99.99
2017-02-14T06:19:25.961Z,99.99
2017-02-14T06:20:35.795Z,99.99
2017-02-14T06:21:45.283Z,99.99
2017-02-14T06:22:54.375Z,99.99
2017-02-14T06:24:04.215Z,99.99
2017-02-14T06:25:13.658Z,99.99
2017-02-14T06:26:22.765Z,99.99
2017-02-14T06:27:31.841Z,99.99
2017-02-14T06:28:41.294Z,99.99
2017-02-14T06:29:51.124Z,99.99
2017-02-14T06:31:00.199Z,99.99
2017-02-14T06:32:09.642Z,99.99
2017-02-14T06:33:18.329Z,99.99
2017-02-14T06:34:27.398Z,99.99
2017-02-14T06:35:37.250Z,99.99
2017-02-14T06:36:46.705Z,99.99
2017-02-14T06:37:55.768Z,99.99
2017-02-14T06:39:05.604Z,99.99
2017-02-14T06:40:14.670Z,99.99
2017-02-14T06:41:23.732Z,99.99
2017-02-14T06:42:32.842Z,99.99
2017-02-14T06:43:41.900Z,99.99
2017-02-14T06:44:51.731Z,99.99
2017-02-14T06:46:00.804Z,99.99
2017-02-14T06:47:09.874Z,99.99
2017-02-14T06:48:19.710Z,99.99
2017-02-14T06:49:29.163Z,99.99
2017-02-14T06:50:39.031Z,99.99
2017-02-14T06:51:48.857Z,99.99
2017-02-14T06:52:57.924Z,99.99
2017-02-14T06:54:06.615Z,99.99
2017-02-14T06:55:16.051Z,99.99
2017-02-14T06:56:24.730Z,99.99
2017-02-14T06:57:33.797Z,99.99
2017-02-14T06:58:42.857Z,99.99
2017-02-14T06:59:51.929Z,99.99
2017-02-14T07:01:01.019Z,99.99
2017-02-14T07:02:10.487Z,99.99
2017-02-14T07:03:19.928Z,99.99
2017-02-14T07:04:29.394Z,99.99
2017-02-14T07:05:38.078Z,99.99
2017-02-14T07:06:47.134Z,99.99
2017-02-14T07:07:55.816Z,99.99
2017-02-14T07:09:04.887Z,99.99
2017-02-14T07:10:13.983Z,99.99
2017-02-14T07:11:23.073Z,99.99
2017-02-14T07:12:32.899Z,99.99
2017-02-14T07:13:41.965Z,99.99
2017-02-14T07:14:51.036Z,99.99
2017-02-14T07:16:00.480Z,99.99
2017-02-14T07:17:10.300Z,99.99
2017-02-14T07:18:19.399Z,99.99
2017-02-14T07:19:28.102Z,99.99
2017-02-14T07:20:37.934Z,99.99
2017-02-14T07:21:47.027Z,99.99
2017-02-14T07:22:55.700Z,99.99
2017-02-14T07:24:05.157Z,99.99
2017-02-14T07:25:14.607Z,99.99
2017-02-14T07:26:24.065Z,99.99
2017-02-14T07:27:33.921Z,99.99
2017-02-14T07:28:42.977Z,99.99
2017-02-14T07:29:52.425Z,99.99
2017-02-14T07:31:01.498Z,99.99
2017-02-14T07:32:10.565Z,99.99
2017-02-14T07:33:19.656Z,99.99
2017-02-14T07:34:29.140Z,99.99
2017-02-14T07:35:38.234Z,99.99
2017-02-14T07:36:46.923Z,99.99
2017-02-14T07:37:55.994Z,99.99
2017-02-14T07:39:05.827Z,99.99
2017-02-14T07:40:15.665Z,99.99
2017-02-14T07:41:25.869Z,99.99
2017-02-14T07:42:35.726Z,99.99
2017-02-14T07:43:44.796Z,99.99
2017-02-14T07:44:54.234Z,99.99
2017-02-14T07:46:03.702Z,99.99
2017-02-14T07:47:13.520Z,99.99
2017-02-14T07:48:22.966Z,99.99
2017-02-14T07:49:32.019Z,99.99
2017-02-14T07:50:41.454Z,99.99
2017-02-14T07:51:50.899Z,99.99
2017-02-14T07:53:00.742Z,99.99
2017-02-14T07:54:10.989Z,99.99
2017-02-14T07:55:20.818Z,99.99
2017-02-14T07:56:31.056Z,99.99
2017-02-14T07:57:40.140Z,99.99
2017-02-14T07:58:50.348Z,99.99
2017-02-14T08:00:00.176Z,99.99
2017-02-14T08:01:09.223Z,99.99
2017-02-14T08:02:18.664Z,99.99
2017-02-14T08:03:28.104Z,99.99
2017-02-14T08:04:37.159Z,99.99
2017-02-14T08:05:46.995Z,99.99
2017-02-14T08:06:56.451Z,99.99
2017-02-14T08:08:05.529Z,99.99
2017-02-14T08:09:15.727Z,99.99
2017-02-14T08:10:25.177Z,99.99
2017-02-14T08:11:35.402Z,99.99
2017-02-14T08:12:44.863Z,99.99
2017-02-14T08:13:54.327Z,99.99
2017-02-14T08:15:04.542Z,99.99
2017-02-14T08:16:14.390Z,99.99
2017-02-14T08:17:23.849Z,99.99
2017-02-14T08:18:32.940Z,99.99
2017-02-14T08:19:42.386Z,99.99
2017-02-14T08:20:51.446Z,99.99
2017-02-14T08:22:00.907Z,99.99
2017-02-14T08:23:09.977Z,99.99
2017-02-14T08:24:19.420Z,99.99
2017-02-14T08:25:29.255Z,99.99
2017-02-14T08:26:39.078Z,99.99
2017-02-14T08:27:48.896Z,99.99
2017-02-14T08:28:58.757Z,99.99
2017-02-14T08:30:07.849Z,99.99
2017-02-14T08:31:16.534Z,99.99
2017-02-14T08:32:26.364Z,99.99
2017-02-14T08:33:35.053Z,99.99
2017-02-14T08:34:44.488Z,99.99
2017-02-14T08:35:53.964Z,99.99
2017-02-14T08:37:03.789Z,99.99
2017-02-14T08:38:13.247Z,99.99
2017-02-14T08:39:22.703Z,99.99
2017-02-14T08:40:32.161Z,99.99
2017-02-14T08:41:41.613Z,99.99
2017-02-14T08:42:51.077Z,99.99
2017-02-14T08:44:00.523Z,99.99
2017-02-14T08:45:09.974Z,99.99
2017-02-14T08:46:19.420Z,99.99
2017-02-14T08:47:28.870Z,99.99
2017-02-14T08:48:39.082Z,99.99
2017-02-14T08:49:48.553Z,99.99
2017-02-14T08:50:57.242Z,99.76
2017-02-14T08:52:07.089Z,99.99
2017-02-14T08:53:16.540Z,99.99
2017-02-14T08:54:25.991Z,99.76
2017-02-14T08:55:35.469Z,99.99
2017-02-14T08:56:45.314Z,99.95
2017-02-14T08:57:54.381Z,99.47
2017-02-14T08:59:03.830Z,99.57
2017-02-14T09:00:12.530Z,99.28
2017-02-14T09:01:22.387Z,99
2017-02-14T09:02:31.465Z,98.71
2017-02-14T09:03:40.535Z,98.9
2017-02-14T09:04:49.975Z,98.96
2017-02-14T09:05:59.432Z,98.48
2017-02-14T09:07:09.657Z,99.15
2017-02-14T09:08:19.125Z,99.43
2017-02-14T09:09:28.971Z,99.52
2017-02-14T09:10:38.438Z,99.05
2017-02-14T09:11:47.535Z,98.48
2017-02-14T09:12:57.383Z,98.58
2017-02-14T09:14:07.217Z,98.96
2017-02-14T09:15:16.285Z,99.05
2017-02-14T09:16:25.353Z,98.67
2017-02-14T09:17:35.199Z,98.48
2017-02-14T09:18:44.696Z,98.48
2017-02-14T09:19:54.527Z,98.86
2017-02-14T09:21:03.586Z,98.58
2017-02-14T09:22:13.417Z,98.29
2017-02-14T09:23:22.107Z,98.2
2017-02-14T09:24:31.569Z,98.39
2017-02-14T09:25:40.634Z,97.82
2017-02-14T09:26:50.097Z,96.69
2017-02-14T09:27:59.174Z,96.78
2017-02-14T09:29:07.856Z,96.97
2017-02-14T09:30:17.313Z,96.78
2017-02-14T09:31:25.986Z,96.31
2017-02-14T09:32:35.429Z,96.07
2017-02-14T09:33:44.868Z,95.97
2017-02-14T09:34:53.928Z,95.69
2017-02-14T09:36:03.015Z,95.31
2017-02-14T09:37:12.455Z,95.88
2017-02-14T09:38:21.549Z,95.97
2017-02-14T09:39:30.619Z,95.78
2017-02-14T09:40:40.453Z,95.69
2017-02-14T09:41:49.525Z,95.5
2017-02-14T09:42:59.372Z,94.27
2017-02-14T09:44:08.432Z,94.84
2017-02-14T09:45:17.899Z,94.46
2017-02-14T09:46:27.748Z,95.36
2017-02-14T09:47:36.449Z,95.55
2017-02-14T09:48:45.911Z,94.98
2017-02-14T09:49:55.753Z,95.36
2017-02-14T09:51:05.222Z,95.22
2017-02-14T09:52:14.667Z,93.99
2017-02-14T09:53:24.108Z,92.23
2017-02-14T09:54:33.167Z,90.43
2017-02-14T09:55:42.644Z,90
2017-02-14T09:56:51.741Z,89.67
2017-02-14T09:58:00.812Z,88.62
2017-02-14T09:59:09.879Z,89.9
2017-02-14T10:00:18.979Z,88.86
2017-02-14T10:01:27.675Z,87.86
2017-02-14T10:02:36.740Z,87.1
2017-02-14T10:03:46.575Z,87.05
2017-02-14T10:04:55.657Z,82.96
2017-02-14T10:06:04.345Z,82.05
2017-02-14T10:07:14.184Z,83.95
2017-02-14T10:08:24.401Z,85.04
2017-02-14T10:09:33.858Z,81.81
2017-02-14T10:10:43.336Z,76.39
2017-02-14T10:11:52.437Z,79.52
2017-02-14T10:13:01.116Z,80.42
2017-02-14T10:14:11.325Z,79.28
2017-02-14T10:15:21.952Z,74.75
2017-02-14T10:16:31.398Z,74.27
2017-02-14T10:17:40.890Z,74.8
2017-02-14T10:18:50.337Z,74.62
2017-02-14T10:20:00.188Z,75.09
2017-02-14T10:21:09.261Z,75.32
2017-02-14T10:22:19.489Z,76.08
2017-02-14T10:23:28.584Z,74.46
2017-02-14T10:24:37.669Z,72.12
2017-02-14T10:25:46.360Z,71.93
2017-02-14T10:26:55.828Z,69.74
2017-02-14T10:28:04.930Z,64.4
2017-02-14T10:29:14.406Z,64.75
2017-02-14T10:30:23.877Z,63.13
2017-02-14T10:31:32.578Z,59.99
2017-02-14T10:32:42.035Z,61.48
2017-02-14T10:33:51.483Z,59.29
2017-02-14T10:35:00.942Z,60.31
2017-02-14T10:36:09.629Z,60.88
2017-02-14T10:37:18.722Z,60.6
2017-02-14T10:38:28.209Z,60.94
2017-02-14T10:39:38.065Z,61.71
2017-02-14T10:40:47.907Z,63.67
2017-02-14T10:41:57.358Z,65.67
2017-02-14T10:43:06.817Z,66.3
2017-02-14T10:44:16.275Z,66.49
2017-02-14T10:45:26.120Z,67.15
2017-02-14T10:46:35.567Z,65.44
2017-02-14T10:47:44.275Z,65.5
2017-02-14T10:48:53.750Z,68.35
2017-02-14T10:50:03.606Z,66.08
2017-02-14T10:51:13.064Z,67.02
2017-02-14T10:52:22.145Z,67.12
2017-02-14T10:53:32.007Z,66.08
2017-02-14T10:54:41.463Z,67.69
2017-02-14T10:55:51.300Z,67.4
2017-02-14T10:57:01.519Z,67.12
2017-02-14T10:58:10.594Z,68.64
2017-02-14T10:59:19.287Z,68.07
2017-02-14T11:00:29.124Z,67.12
2017-02-14T11:01:38.587Z,67.59
2017-02-14T11:02:47.297Z,67.4
2017-02-14T11:03:57.166Z,67.21
2017-02-14T11:05:06.225Z,68.73
2017-02-14T11:06:16.081Z,69.4
2017-02-14T11:07:26.292Z,68.26
2017-02-14T11:08:35.750Z,68.07
2017-02-14T11:09:45.225Z,67.79
2017-02-14T11:10:54.697Z,65.63
2017-02-14T11:12:04.155Z,66.3
2017-02-14T11:13:13.623Z,66.58
2017-02-14T11:14:22.724Z,66.67
2017-02-14T11:15:32.188Z,66.67
2017-02-14T11:16:41.666Z,66.3
2017-02-14T11:17:50.735Z,66.39
2017-02-14T11:19:00.581Z,65.63
2017-02-14T11:20:10.036Z,65.82
2017-02-14T11:21:19.114Z,66.11
2017-02-14T11:22:28.191Z,66.87
2017-02-14T11:23:37.269Z,66.2
2017-02-14T11:24:46.373Z,65.54
2017-02-14T11:25:56.218Z,67.53
2017-02-14T11:27:05.711Z,67.15
2017-02-14T11:28:14.802Z,65.82
2017-02-14T11:29:24.278Z,65.82
2017-02-14T11:30:33.380Z,66.77
2017-02-14T11:31:43.594Z,65.54
2017-02-14T11:32:53.421Z,68.19
2017-02-14T11:34:02.884Z,70.95
2017-02-14T11:35:11.956Z,70
2017-02-14T11:36:21.041Z,70.38
2017-02-14T11:37:31.292Z,70.48
2017-02-14T11:38:40.000Z,67.72
2017-02-14T11:39:49.086Z,65.82
2017-02-14T11:40:58.933Z,65
2017-02-14T11:42:08.394Z,66.9
2017-02-14T11:43:17.848Z,65.86
2017-02-14T11:44:27.321Z,66.42
2017-02-14T11:45:36.778Z,65.57
2017-02-14T11:46:46.281Z,65.19
2017-02-14T11:47:55.734Z,65.57
2017-02-14T11:49:04.812Z,65.86
2017-02-14T11:50:13.511Z,65.67
2017-02-14T11:51:23.728Z,64.14
2017-02-14T11:52:32.435Z,63.2
2017-02-14T11:53:42.287Z,65.76
2017-02-14T11:54:51.380Z,66.9
2017-02-14T11:56:00.448Z,67.57
2017-02-14T11:57:10.279Z,66.42
2017-02-14T11:58:19.777Z,65.19
2017-02-14T11:59:28.471Z,66.24
2017-02-14T12:00:37.941Z,63.86
2017-02-14T12:01:47.390Z,62.72
2017-02-14T12:02:56.863Z,62.72
2017-02-14T12:04:06.712Z,63.76
2017-02-14T12:05:15.795Z,64.9
2017-02-14T12:06:24.898Z,65.95
2017-02-14T12:07:34.726Z,65.47
2017-02-14T12:08:43.433Z,64.9
2017-02-14T12:09:53.275Z,64.14
2017-02-14T12:11:02.349Z,65.09
2017-02-14T12:12:11.804Z,65.28
2017-02-14T12:13:20.887Z,63.1
2017-02-14T12:14:30.359Z,63.29
2017-02-14T12:15:39.446Z,63.01
2017-02-14T12:16:48.124Z,65.67
2017-02-14T12:17:57.189Z,66.33
2017-02-14T12:19:05.903Z,66.55
2017-02-14T12:20:14.607Z,65.99
2017-02-14T12:21:24.471Z,65.76
2017-02-14T12:22:33.918Z,65.57
2017-02-14T12:23:43.371Z,65.38
2017-02-14T12:24:52.061Z,64.81
2017-02-14T12:26:01.507Z,64.9
2017-02-14T12:27:10.975Z,66.65
2017-02-14T12:28:20.437Z,67.6
2017-02-14T12:29:29.508Z,66.74
2017-02-14T12:30:39.354Z,69.5
2017-02-14T12:31:48.810Z,68.74
2017-02-14T12:32:57.882Z,66.08
2017-02-14T12:34:08.088Z,66.65
2017-02-14T12:35:16.774Z,64.56
2017-02-14T12:36:26.229Z,64.18
2017-02-14T12:37:34.902Z,64.84
2017-02-14T12:38:43.993Z,65.7
2017-02-14T12:39:53.455Z,67.22
2017-02-14T12:41:03.677Z,70.64
2017-02-14T12:42:12.752Z,71.5
2017-02-14T12:43:21.815Z,70.17
2017-02-14T12:44:31.265Z,70.74
2017-02-14T12:45:40.745Z,70.17
2017-02-14T12:46:49.830Z,72.16
2017-02-14T12:47:59.678Z,71.12
2017-02-14T12:49:09.160Z,70.83
2017-02-14T12:50:18.238Z,65.41
2017-02-14T12:51:27.308Z,63.89
2017-02-14T12:52:36.763Z,64.75
2017-02-14T12:53:46.619Z,67.5
2017-02-14T12:54:55.695Z,70.54
2017-02-14T12:56:05.923Z,69.79
2017-02-14T12:57:14.607Z,68.27
2017-02-14T12:58:23.670Z,68.27
2017-02-14T12:59:33.505Z,65.99
2017-02-14T13:00:42.974Z,66.27
2017-02-14T13:01:52.451Z,66.65
2017-02-14T13:03:01.178Z,65.51
2017-02-14T13:04:10.240Z,66.65
2017-02-14T13:05:18.941Z,65.03
2017-02-14T13:06:28.402Z,66.97
2017-02-14T13:07:37.471Z,66.68
2017-02-14T13:08:46.151Z,68.01
2017-02-14T13:09:55.627Z,65.54
2017-02-14T13:11:05.476Z,66.3
2017-02-14T13:12:14.926Z,69.44
2017-02-14T13:13:24.385Z,69.44
2017-02-14T13:14:34.215Z,68.21
2017-02-14T13:15:43.675Z,66.68
2017-02-14T13:16:53.903Z,65.73
2017-02-14T13:18:02.965Z,66.11
2017-02-14T13:19:12.480Z,64.97
2017-02-14T13:20:21.584Z,68.3
2017-02-14T13:21:31.079Z,69.35
2017-02-14T13:22:39.783Z,66.49
2017-02-14T13:23:49.269Z,65.92
2017-02-14T13:24:58.340Z,70.3
2017-02-14T13:26:07.463Z,67.63
2017-02-14T13:27:16.536Z,65.64
2017-02-14T13:28:25.619Z,66.39
2017-02-14T13:29:34.693Z,64.69
2017-02-14T13:30:43.778Z,65.64
2017-02-14T13:31:53.266Z,66.2
2017-02-14T13:33:02.742Z,69.54
2017-02-14T13:34:12.207Z,65.64
2017-02-14T13:35:21.281Z,62.62
2017-02-14T13:36:30.742Z,63.29
2017-02-14T13:37:39.442Z,65.67
2017-02-14T13:38:49.298Z,69.29
2017-02-14T13:39:59.141Z,66.53
2017-02-14T13:41:08.215Z,65
2017-02-14T13:42:17.284Z,64.53
2017-02-14T13:43:26.398Z,63.57
2017-02-14T13:44:35.478Z,65.48
2017-02-14T13:45:44.937Z,65.38
2017-02-14T13:46:54.398Z,66.53
2017-02-14T13:48:03.871Z,64.53
2017-02-14T13:49:13.341Z,62.53
2017-02-14T13:50:22.408Z,65
2017-02-14T13:51:31.872Z,65.67
2017-02-14T13:52:40.966Z,65.86
2017-02-14T13:53:50.424Z,66.81
2017-02-14T13:55:00.649Z,67.67
2017-02-14T13:56:10.490Z,64.43
2017-02-14T13:57:19.191Z,63.1
2017-02-14T13:58:27.881Z,64.81
2017-02-14T13:59:36.957Z,63.2
2017-02-14T14:00:47.179Z,64.37
2017-02-14T14:01:56.641Z,62.85
2017-02-14T14:03:06.472Z,62.65
2017-02-14T14:04:15.923Z,62.85
2017-02-14T14:05:25.754Z,62.27
2017-02-14T14:06:34.453Z,62.18
2017-02-14T14:07:43.548Z,64.94
2017-02-14T14:08:53.015Z,63.23
2017-02-14T14:10:01.704Z,63.32
2017-02-14T14:11:10.769Z,65.03
2017-02-14T14:12:19.475Z,63.04
2017-02-14T14:13:28.926Z,63.42
2017-02-14T14:14:38.388Z,60.27
2017-02-14T14:15:47.865Z,60.75
2017-02-14T14:16:56.940Z,63.51
2017-02-14T14:18:06.791Z,64.84
2017-02-14T14:19:15.487Z,63.7
2017-02-14T14:20:25.329Z,63.8
2017-02-14T14:21:34.401Z,63.8
2017-02-14T14:22:43.851Z,61.51
2017-02-14T14:23:53.331Z,61.51
2017-02-14T14:25:02.826Z,65.03
2017-02-14T14:26:12.658Z,64.94
2017-02-14T14:27:21.729Z,66.08
2017-02-14T14:28:30.442Z,67.7
2017-02-14T14:29:40.293Z,66.66
2017-02-14T14:30:49.748Z,67.61
2017-02-14T14:31:59.215Z,65.8
2017-02-14T14:33:08.289Z,65.7
2017-02-14T14:34:17.779Z,64.28
2017-02-14T14:35:26.848Z,67.32
2017-02-14T14:36:36.692Z,64.97
2017-02-14T14:37:46.145Z,63.8
2017-02-14T14:38:56.178Z,63.26
2017-02-14T14:40:06.399Z,61.9
2017-02-14T14:41:15.868Z,62.94
2017-02-14T14:42:25.440Z,62.08
2017-02-14T14:43:34.514Z,64.56
2017-02-14T14:44:43.965Z,65.42
2017-02-14T14:45:53.458Z,65.8
2017-02-14T14:47:02.914Z,65.32
2017-02-14T14:48:11.608Z,64.47
2017-02-14T14:49:20.688Z,64.84
2017-02-14T14:50:29.756Z,64.28
2017-02-14T14:51:38.835Z,63.89
2017-02-14T14:52:48.301Z,63.23
2017-02-14T14:53:57.769Z,63.51
2017-02-14T14:55:06.852Z,65.03
2017-02-14T14:56:15.949Z,65.8